sensor_id;sensor_type;location;lat;lon;timestamp;pressure;altitude;pressure_sealevel;temperature;humidity
5777;BME280;2914;42.668;23.346;2023-05-10T00:01:51;94781.41;;;9.38;100.00
5777;BME280;2914;42.668;23.346;2023-05-10T00:04:20;94781.41;;;9.38;100.00
5777;BME280;2914;42.668;23.346;2023-05-10T00:06:49;94784.95;;;9.48;100.00
5777;BME280;2914;42.668;23.346;2023-05-10T00:09:18;94787.25;;;9.41;100.00
5777;BME280;2914;42.668;23.346;2023-05-10T00:11:48;94773.23;;;9.41;100.00
5777;BME280;2914;42.668;23.346;2023-05-10T00:14:17;94773.81;;;9.29;100.00
5777;BME280;2914;42.668;23.346;2023-05-10T00:16:46;94773.05;;;9.32;100.00
5777;BME280;2914;42.668;23.346;2023-05-10T00:19:15;94766.73;;;9.29;100.00
5777;BME280;2914;42.668;23.346;2023-05-10T00:24:21;94759.45;;;9.06;100.00
5777;BME280;2914;42.668;23.346;2023-05-10T00:29:28;94757.33;;;9.21;100.00
5777;BME280;2914;42.668;23.346;2023-05-10T00:31:57;94757.33;;;9.21;100.00
5777;BME280;2914;42.668;23.346;2023-05-10T00:34:26;94766.97;;;9.11;100.00
5777;BME280;2914;42.668;23.346;2023-05-10T00:36:56;94767.66;;;9.13;100.00
5777;BME280;2914;42.668;23.346;2023-05-10T00:39:25;94768.58;;;9.23;100.00
5777;BME280;2914;42.668;23.346;2023-05-10T00:41:56;94757.41;;;9.10;100.00
5777;BME280;2914;42.668;23.346;2023-05-10T00:44:25;94768.29;;;9.11;100.00
5777;BME280;2914;42.668;23.346;2023-05-10T00:46:54;94762.33;;;9.24;100.00
5777;BME280;2914;42.668;23.346;2023-05-10T00:49:24;94748.12;;;9.21;100.00
5777;BME280;2914;42.668;23.346;2023-05-10T00:51:53;94756.20;;;9.29;100.00
5777;BME280;2914;42.668;23.346;2023-05-10T00:54:22;94754.44;;;9.24;100.00
5777;BME280;2914;42.668;23.346;2023-05-10T00:56:52;94751.11;;;9.22;100.00
5777;BME280;2914;42.668;23.346;2023-05-10T00:59:21;94750.21;;;9.33;100.00
5777;BME280;2914;42.668;23.346;2023-05-10T01:01:51;94751.97;;;9.17;100.00
5777;BME280;2914;42.668;23.346;2023-05-10T01:04:20;94759.47;;;9.22;100.00
5777;BME280;2914;42.668;23.346;2023-05-10T01:06:51;94759.47;;;9.22;100.00
5777;BME280;2914;42.668;23.346;2023-05-10T01:09:21;94754.50;;;9.13;100.00
5777;BME280;2914;42.668;23.346;2023-05-10T01:11:50;94739.74;;;9.00;100.00
5777;BME280;2914;42.668;23.346;2023-05-10T01:14:20;94739.74;;;9.00;100.00
5777;BME280;2914;42.668;23.346;2023-05-10T01:16:50;94737.83;;;9.03;100.00
5777;BME280;2914;42.668;23.346;2023-05-10T01:19:23;94753.55;;;9.14;100.00
5777;BME280;2914;42.668;23.346;2023-05-10T01:21:58;94741.41;;;9.23;100.00
5777;BME280;2914;42.668;23.346;2023-05-10T01:31:08;94732.02;;;9.30;100.00
5777;BME280;2914;42.668;23.346;2023-05-10T01:33:40;94728.33;;;8.85;100.00
5777;BME280;2914;42.668;23.346;2023-05-10T01:36:15;94742.70;;;8.80;100.00
5777;BME280;2914;42.668;23.346;2023-05-10T01:38:47;94725.50;;;8.82;100.00
5777;BME280;2914;42.668;23.346;2023-05-10T01:41:22;94739.28;;;8.74;100.00
5777;BME280;2914;42.668;23.346;2023-05-10T01:43:55;94728.86;;;8.78;100.00
5777;BME280;2914;42.668;23.346;2023-05-10T01:46:28;94723.47;;;8.80;100.00
5777;BME280;2914;42.668;23.346;2023-05-10T01:48:59;94727.91;;;8.79;100.00
5777;BME280;2914;42.668;23.346;2023-05-10T01:51:34;94727.91;;;8.79;100.00
5777;BME280;2914;42.668;23.346;2023-05-10T01:54:03;94717.18;;;8.71;100.00
5777;BME280;2914;42.668;23.346;2023-05-10T01:56:35;94717.18;;;8.71;100.00
5777;BME280;2914;42.668;23.346;2023-05-10T01:59:09;94727.44;;;8.74;100.00
5777;BME280;2914;42.668;23.346;2023-05-10T02:01:38;94725.43;;;8.66;100.00
5777;BME280;2914;42.668;23.346;2023-05-10T02:04:09;94710.64;;;8.65;100.00
5777;BME280;2914;42.668;23.346;2023-05-10T02:06:40;94740.98;;;8.70;100.00
5777;BME280;2914;42.668;23.346;2023-05-10T02:09:11;94723.55;;;8.63;100.00
5777;BME280;2914;42.668;23.346;2023-05-10T02:11:43;94733.89;;;8.49;100.00
5777;BME280;2914;42.668;23.346;2023-05-10T02:14:13;94741.42;;;8.37;100.00
5777;BME280;2914;42.668;23.346;2023-05-10T02:16:43;94734.75;;;8.21;100.00
5777;BME280;2914;42.668;23.346;2023-05-10T02:19:14;94734.75;;;8.21;100.00
5777;BME280;2914;42.668;23.346;2023-05-10T02:21:45;94733.11;;;8.20;100.00
5777;BME280;2914;42.668;23.346;2023-05-10T02:24:16;94742.30;;;8.09;100.00
5777;BME280;2914;42.668;23.346;2023-05-10T02:26:48;94724.02;;;8.13;100.00
5777;BME280;2914;42.668;23.346;2023-05-10T02:29:19;94732.44;;;7.95;100.00
5777;BME280;2914;42.668;23.346;2023-05-10T02:31:52;94717.01;;;7.96;100.00
5777;BME280;2914;42.668;23.346;2023-05-10T02:34:24;94746.41;;;7.90;100.00
5777;BME280;2914;42.668;23.346;2023-05-10T02:36:55;94735.80;;;7.75;100.00
5777;BME280;2914;42.668;23.346;2023-05-10T02:39:25;94735.80;;;7.75;100.00
5777;BME280;2914;42.668;23.346;2023-05-10T02:41:56;94722.53;;;7.65;100.00
5777;BME280;2914;42.668;23.346;2023-05-10T02:44:28;94742.10;;;7.61;100.00
5777;BME280;2914;42.668;23.346;2023-05-10T02:46:58;94732.67;;;7.47;100.00
5777;BME280;2914;42.668;23.346;2023-05-10T02:49:27;94738.91;;;7.46;100.00
5777;BME280;2914;42.668;23.346;2023-05-10T02:52:00;94738.30;;;7.42;100.00
5777;BME280;2914;42.668;23.346;2023-05-10T02:54:33;94722.91;;;7.38;100.00
5777;BME280;2914;42.668;23.346;2023-05-10T02:57:04;94727.30;;;7.48;100.00
5777;BME280;2914;42.668;23.346;2023-05-10T02:59:34;94733.41;;;7.43;100.00
5777;BME280;2914;42.668;23.346;2023-05-10T03:02:04;94750.47;;;7.43;100.00
5777;BME280;2914;42.668;23.346;2023-05-10T03:07:15;94725.30;;;7.41;100.00
5777;BME280;2914;42.668;23.346;2023-05-10T03:12:33;94727.06;;;7.35;100.00
5777;BME280;2914;42.668;23.346;2023-05-10T03:17:46;94773.73;;;7.48;100.00
5777;BME280;2914;42.668;23.346;2023-05-10T03:20:22;94746.41;;;7.34;100.00
5777;BME280;2914;42.668;23.346;2023-05-10T03:22:55;94737.34;;;7.43;100.00
5777;BME280;2914;42.668;23.346;2023-05-10T03:25:25;94732.09;;;7.43;100.00
5777;BME280;2914;42.668;23.346;2023-05-10T03:27:55;94739.61;;;7.42;100.00
5777;BME280;2914;42.668;23.346;2023-05-10T03:30:25;94759.87;;;7.40;100.00
5777;BME280;2914;42.668;23.346;2023-05-10T03:32:54;94733.16;;;7.46;100.00
5777;BME280;2914;42.668;23.346;2023-05-10T03:35:24;94740.21;;;7.57;100.00
5777;BME280;2914;42.668;23.346;2023-05-10T03:37:53;94747.23;;;7.57;100.00
5777;BME280;2914;42.668;23.346;2023-05-10T03:40:25;94741.52;;;7.57;100.00
5777;BME280;2914;42.668;23.346;2023-05-10T03:42:56;94743.90;;;7.66;100.00
5777;BME280;2914;42.668;23.346;2023-05-10T03:45:25;94743.91;;;7.60;100.00
5777;BME280;2914;42.668;23.346;2023-05-10T03:47:57;94748.08;;;7.69;100.00
5777;BME280;2914;42.668;23.346;2023-05-10T03:50:28;94743.31;;;7.74;100.00
5777;BME280;2914;42.668;23.346;2023-05-10T03:52:57;94742.37;;;7.75;100.00
5777;BME280;2914;42.668;23.346;2023-05-10T03:55:27;94742.00;;;7.68;100.00
5777;BME280;2914;42.668;23.346;2023-05-10T03:58:10;94747.26;;;7.68;100.00
5777;BME280;2914;42.668;23.346;2023-05-10T04:00:38;94762.03;;;7.63;100.00
5777;BME280;2914;42.668;23.346;2023-05-10T04:03:11;94757.39;;;7.67;100.00
5777;BME280;2914;42.668;23.346;2023-05-10T04:05:40;94757.52;;;7.66;100.00
5777;BME280;2914;42.668;23.346;2023-05-10T04:10:52;94751.41;;;7.59;100.00
5777;BME280;2914;42.668;23.346;2023-05-10T04:13:21;94761.80;;;7.55;100.00
5777;BME280;2914;42.668;23.346;2023-05-10T04:15:50;94762.53;;;7.52;100.00
5777;BME280;2914;42.668;23.346;2023-05-10T04:18:19;94762.77;;;7.54;100.00
5777;BME280;2914;42.668;23.346;2023-05-10T04:20:48;94759.99;;;7.44;100.00
5777;BME280;2914;42.668;23.346;2023-05-10T04:23:17;94769.79;;;7.65;100.00
5777;BME280;2914;42.668;23.346;2023-05-10T04:25:46;94766.21;;;7.77;100.00
5777;BME280;2914;42.668;23.346;2023-05-10T04:28:15;94762.17;;;7.79;100.00
5777;BME280;2914;42.668;23.346;2023-05-10T04:30:44;94765.50;;;7.81;100.00
5777;BME280;2914;42.668;23.346;2023-05-10T04:33:13;94771.45;;;7.77;100.00
5777;BME280;2914;42.668;23.346;2023-05-10T04:35:42;94771.45;;;7.77;100.00
5777;BME280;2914;42.668;23.346;2023-05-10T04:38:12;94779.70;;;7.73;100.00
5777;BME280;2914;42.668;23.346;2023-05-10T04:40:43;94772.56;;;7.75;100.00
5777;BME280;2914;42.668;23.346;2023-05-10T04:43:12;94769.81;;;7.71;100.00
5777;BME280;2914;42.668;23.346;2023-05-10T04:45:41;94775.89;;;7.54;100.00
5777;BME280;2914;42.668;23.346;2023-05-10T04:48:11;94768.72;;;7.56;100.00
5777;BME280;2914;42.668;23.346;2023-05-10T04:50:41;94759.78;;;7.59;100.00
5777;BME280;2914;42.668;23.346;2023-05-10T04:53:10;94774.92;;;7.50;100.00
5777;BME280;2914;42.668;23.346;2023-05-10T04:58:18;94766.00;;;7.75;100.00
5777;BME280;2914;42.668;23.346;2023-05-10T05:00:47;94771.01;;;7.72;100.00
5777;BME280;2914;42.668;23.346;2023-05-10T05:03:16;94769.08;;;7.74;100.00
5777;BME280;2914;42.668;23.346;2023-05-10T05:05:45;94769.94;;;7.75;100.00
5777;BME280;2914;42.668;23.346;2023-05-10T05:08:14;94773.75;;;7.76;100.00
5777;BME280;2914;42.668;23.346;2023-05-10T05:10:43;94777.80;;;7.86;100.00
5777;BME280;2914;42.668;23.346;2023-05-10T05:13:13;94768.98;;;7.87;100.00
5777;BME280;2914;42.668;23.346;2023-05-10T05:15:42;94772.67;;;7.90;100.00
5777;BME280;2914;42.668;23.346;2023-05-10T05:18:11;94772.67;;;7.90;100.00
5777;BME280;2914;42.668;23.346;2023-05-10T05:20:40;94773.38;;;7.81;100.00
5777;BME280;2914;42.668;23.346;2023-05-10T05:23:09;94782.81;;;7.84;100.00
5777;BME280;2914;42.668;23.346;2023-05-10T05:25:39;94779.34;;;7.72;100.00
5777;BME280;2914;42.668;23.346;2023-05-10T05:30:51;94777.69;;;7.82;100.00
5777;BME280;2914;42.668;23.346;2023-05-10T05:33:20;94786.05;;;7.87;100.00
5777;BME280;2914;42.668;23.346;2023-05-10T05:35:49;94788.31;;;7.86;100.00
5777;BME280;2914;42.668;23.346;2023-05-10T05:38:18;94793.20;;;7.85;100.00
5777;BME280;2914;42.668;23.346;2023-05-10T05:40:47;94785.93;;;7.83;100.00
5777;BME280;2914;42.668;23.346;2023-05-10T05:43:17;94789.38;;;7.84;100.00
5777;BME280;2914;42.668;23.346;2023-05-10T05:45:46;94796.06;;;7.88;100.00
5777;BME280;2914;42.668;23.346;2023-05-10T05:48:15;94786.28;;;7.95;100.00
5777;BME280;2914;42.668;23.346;2023-05-10T05:50:44;94783.64;;;8.07;100.00
5777;BME280;2914;42.668;23.346;2023-05-10T05:53:14;94791.53;;;7.95;100.00
5777;BME280;2914;42.668;23.346;2023-05-10T05:58:30;94795.69;;;7.92;100.00
5777;BME280;2914;42.668;23.346;2023-05-10T06:00:59;94799.39;;;7.90;100.00
5777;BME280;2914;42.668;23.346;2023-05-10T06:03:28;94797.01;;;7.92;100.00
5777;BME280;2914;42.668;23.346;2023-05-10T06:05:57;94798.08;;;7.84;100.00
5777;BME280;2914;42.668;23.346;2023-05-10T06:08:26;94791.29;;;7.98;100.00
5777;BME280;2914;42.668;23.346;2023-05-10T06:10:55;94797.97;;;8.03;100.00
5777;BME280;2914;42.668;23.346;2023-05-10T06:13:24;94795.69;;;7.98;100.00
5777;BME280;2914;42.668;23.346;2023-05-10T06:15:54;94801.31;;;7.93;100.00
5777;BME280;2914;42.668;23.346;2023-05-10T06:21:01;94796.78;;;8.07;100.00
5777;BME280;2914;42.668;23.346;2023-05-10T06:23:30;94802.75;;;7.92;100.00
5777;BME280;2914;42.668;23.346;2023-05-10T06:25:59;94807.64;;;7.91;100.00
5777;BME280;2914;42.668;23.346;2023-05-10T06:28:29;94802.63;;;7.88;100.00
5777;BME280;2914;42.668;23.346;2023-05-10T06:30:59;94801.44;;;7.92;100.00
5777;BME280;2914;42.668;23.346;2023-05-10T06:33:29;94804.30;;;7.94;100.00
5777;BME280;2914;42.668;23.346;2023-05-10T06:35:58;94812.53;;;7.90;100.00
5777;BME280;2914;42.668;23.346;2023-05-10T06:38:27;94811.70;;;7.95;100.00
5777;BME280;2914;42.668;23.346;2023-05-10T06:40:56;94811.58;;;7.91;100.00
5777;BME280;2914;42.668;23.346;2023-05-10T06:43:25;94804.66;;;8.07;100.00
5777;BME280;2914;42.668;23.346;2023-05-10T06:45:56;94808.59;;;8.07;100.00
5777;BME280;2914;42.668;23.346;2023-05-10T06:48:25;94811.47;;;8.04;100.00
5777;BME280;2914;42.668;23.346;2023-05-10T06:50:54;94804.30;;;8.06;100.00
5777;BME280;2914;42.668;23.346;2023-05-10T06:53:23;94807.51;;;7.98;100.00
5777;BME280;2914;42.668;23.346;2023-05-10T06:55:52;94811.36;;;8.00;100.00
5777;BME280;2914;42.668;23.346;2023-05-10T06:58:21;94812.78;;;8.09;100.00
5777;BME280;2914;42.668;23.346;2023-05-10T07:00:50;94804.15;;;8.19;100.00
5777;BME280;2914;42.668;23.346;2023-05-10T07:03:19;94811.81;;;8.05;100.00
5777;BME280;2914;42.668;23.346;2023-05-10T07:05:48;94813.84;;;8.18;100.00
5777;BME280;2914;42.668;23.346;2023-05-10T07:08:17;94816.34;;;8.20;100.00
5777;BME280;2914;42.668;23.346;2023-05-10T07:10:47;94815.27;;;8.22;100.00
5777;BME280;2914;42.668;23.346;2023-05-10T07:13:16;94818.25;;;8.29;100.00
5777;BME280;2914;42.668;23.346;2023-05-10T07:15:45;94816.20;;;8.44;100.00
5777;BME280;2914;42.668;23.346;2023-05-10T07:18:14;94816.92;;;8.35;100.00
5777;BME280;2914;42.668;23.346;2023-05-10T07:20:43;94820.89;;;8.23;100.00
5777;BME280;2914;42.668;23.346;2023-05-10T07:25:54;94824.44;;;8.33;100.00
5777;BME280;2914;42.668;23.346;2023-05-10T07:28:24;94824.44;;;8.33;100.00
5777;BME280;2914;42.668;23.346;2023-05-10T07:30:54;94831.04;;;8.17;100.00
5777;BME280;2914;42.668;23.346;2023-05-10T07:33:23;94824.82;;;8.06;100.00
5777;BME280;2914;42.668;23.346;2023-05-10T07:35:51;94831.53;;;8.16;100.00
5777;BME280;2914;42.668;23.346;2023-05-10T07:38:21;94829.14;;;8.24;100.00
5777;BME280;2914;42.668;23.346;2023-05-10T07:40:50;94840.23;;;8.22;100.00
5777;BME280;2914;42.668;23.346;2023-05-10T07:43:19;94843.11;;;8.19;100.00
5777;BME280;2914;42.668;23.346;2023-05-10T07:45:48;94842.05;;;8.16;100.00
5777;BME280;2914;42.668;23.346;2023-05-10T07:48:17;94838.80;;;8.18;100.00
5777;BME280;2914;42.668;23.346;2023-05-10T07:50:46;94842.74;;;8.18;100.00
5777;BME280;2914;42.668;23.346;2023-05-10T07:53:15;94838.67;;;8.25;100.00
5777;BME280;2914;42.668;23.346;2023-05-10T07:58:28;94840.84;;;8.26;100.00
5777;BME280;2914;42.668;23.346;2023-05-10T08:00:57;94839.53;;;8.20;100.00
5777;BME280;2914;42.668;23.346;2023-05-10T08:03:26;94841.67;;;8.21;100.00
5777;BME280;2914;42.668;23.346;2023-05-10T08:05:55;94847.30;;;8.16;100.00
5777;BME280;2914;42.668;23.346;2023-05-10T08:08:25;94844.41;;;8.30;100.00
5777;BME280;2914;42.668;23.346;2023-05-10T08:10:54;94848.46;;;8.35;100.00
5777;BME280;2914;42.668;23.346;2023-05-10T08:13:23;94843.91;;;8.31;100.00
5777;BME280;2914;42.668;23.346;2023-05-10T08:15:52;94855.87;;;8.29;100.00
5777;BME280;2914;42.668;23.346;2023-05-10T08:18:21;94847.03;;;8.30;100.00
5777;BME280;2914;42.668;23.346;2023-05-10T08:20:50;94840.09;;;8.35;100.00
5777;BME280;2914;42.668;23.346;2023-05-10T08:23:19;94840.09;;;8.35;100.00
5777;BME280;2914;42.668;23.346;2023-05-10T08:25:48;94838.17;;;8.43;100.00
5777;BME280;2914;42.668;23.346;2023-05-10T08:28:17;94845.50;;;8.51;100.00
5777;BME280;2914;42.668;23.346;2023-05-10T08:30:46;94846.55;;;8.59;100.00
5777;BME280;2914;42.668;23.346;2023-05-10T08:33:15;94854.69;;;8.56;100.00
5777;BME280;2914;42.668;23.346;2023-05-10T08:35:44;94854.69;;;8.56;100.00
5777;BME280;2914;42.668;23.346;2023-05-10T08:38:13;94843.55;;;8.58;100.00
5777;BME280;2914;42.668;23.346;2023-05-10T08:40:43;94852.73;;;8.64;100.00
5777;BME280;2914;42.668;23.346;2023-05-10T08:43:13;94852.98;;;8.61;100.00
5777;BME280;2914;42.668;23.346;2023-05-10T08:45:44;94848.34;;;8.59;100.00
5777;BME280;2914;42.668;23.346;2023-05-10T08:48:15;94841.75;;;8.42;100.00
5777;BME280;2914;42.668;23.346;2023-05-10T08:50:46;94841.75;;;8.42;100.00
5777;BME280;2914;42.668;23.346;2023-05-10T08:53:17;94847.62;;;8.57;100.00
5777;BME280;2914;42.668;23.346;2023-05-10T08:55:48;94863.89;;;8.56;100.00
5777;BME280;2914;42.668;23.346;2023-05-10T08:58:18;94863.89;;;8.56;100.00
5777;BME280;2914;42.668;23.346;2023-05-10T09:00:49;94853.73;;;8.57;100.00
5777;BME280;2914;42.668;23.346;2023-05-10T09:03:19;94848.79;;;8.64;100.00
5777;BME280;2914;42.668;23.346;2023-05-10T09:05:49;94848.92;;;8.62;100.00
5777;BME280;2914;42.668;23.346;2023-05-10T09:08:18;94862.29;;;8.71;100.00
5777;BME280;2914;42.668;23.346;2023-05-10T09:10:49;94877.27;;;8.59;100.00
5777;BME280;2914;42.668;23.346;2023-05-10T09:13:18;94847.16;;;8.46;100.00
5777;BME280;2914;42.668;23.346;2023-05-10T09:15:48;94846.31;;;8.40;100.00
5777;BME280;2914;42.668;23.346;2023-05-10T09:18:17;94849.20;;;8.48;100.00
5777;BME280;2914;42.668;23.346;2023-05-10T09:20:47;94852.07;;;8.51;100.00
5777;BME280;2914;42.668;23.346;2023-05-10T09:26:03;94849.42;;;8.56;100.00
5777;BME280;2914;42.668;23.346;2023-05-10T09:31:24;94839.95;;;8.65;100.00
5777;BME280;2914;42.668;23.346;2023-05-10T09:33:55;94840.31;;;8.66;100.00
5777;BME280;2914;42.668;23.346;2023-05-10T09:36:24;94851.33;;;8.65;100.00
5777;BME280;2914;42.668;23.346;2023-05-10T09:38:54;94840.41;;;8.76;100.00
5777;BME280;2914;42.668;23.346;2023-05-10T09:41:25;94838.16;;;8.71;100.00
5777;BME280;2914;42.668;23.346;2023-05-10T09:43:57;94835.51;;;8.77;100.00
5777;BME280;2914;42.668;23.346;2023-05-10T09:49:11;94832.66;;;9.01;100.00
5777;BME280;2914;42.668;23.346;2023-05-10T09:51:40;94841.56;;;8.94;100.00
5777;BME280;2914;42.668;23.346;2023-05-10T09:56:57;94828.63;;;8.91;100.00
5777;BME280;2914;42.668;23.346;2023-05-10T09:59:27;94836.62;;;8.95;100.00
5777;BME280;2914;42.668;23.346;2023-05-10T10:01:58;94836.34;;;9.10;100.00
5777;BME280;2914;42.668;23.346;2023-05-10T10:04:28;94845.97;;;8.94;100.00
5777;BME280;2914;42.668;23.346;2023-05-10T10:07:02;94845.97;;;8.94;100.00
5777;BME280;2914;42.668;23.346;2023-05-10T10:09:31;94817.28;;;8.91;100.00
5777;BME280;2914;42.668;23.346;2023-05-10T10:12:01;94812.33;;;9.03;100.00
5777;BME280;2914;42.668;23.346;2023-05-10T10:14:31;94812.33;;;9.03;100.00
5777;BME280;2914;42.668;23.346;2023-05-10T10:17:02;94816.53;;;9.00;100.00
5777;BME280;2914;42.668;23.346;2023-05-10T10:19:33;94809.57;;;9.05;100.00
5777;BME280;2914;42.668;23.346;2023-05-10T10:22:03;94811.58;;;9.12;100.00
5777;BME280;2914;42.668;23.346;2023-05-10T10:24:33;94823.32;;;9.08;100.00
5777;BME280;2914;42.668;23.346;2023-05-10T10:27:07;94806.55;;;9.09;100.00
5777;BME280;2914;42.668;23.346;2023-05-10T10:29:39;94815.50;;;9.18;100.00
5777;BME280;2914;42.668;23.346;2023-05-10T10:32:12;94810.80;;;9.27;100.00
5777;BME280;2914;42.668;23.346;2023-05-10T10:34:41;94810.80;;;9.27;100.00
5777;BME280;2914;42.668;23.346;2023-05-10T10:37:10;94812.31;;;9.30;100.00
5777;BME280;2914;42.668;23.346;2023-05-10T10:39:39;94815.89;;;9.34;100.00
5777;BME280;2914;42.668;23.346;2023-05-10T10:42:08;94821.28;;;9.33;100.00
5777;BME280;2914;42.668;23.346;2023-05-10T10:44:38;94821.28;;;9.33;100.00
5777;BME280;2914;42.668;23.346;2023-05-10T10:50:12;94808.83;;;9.56;100.00
5777;BME280;2914;42.668;23.346;2023-05-10T10:52:42;94814.66;;;9.60;99.58
5777;BME280;2914;42.668;23.346;2023-05-10T10:55:13;94814.66;;;9.60;99.58
5777;BME280;2914;42.668;23.346;2023-05-10T10:57:47;94812.73;;;9.62;99.90
5777;BME280;2914;42.668;23.346;2023-05-10T11:00:23;94809.97;;;9.63;98.93
5777;BME280;2914;42.668;23.346;2023-05-10T11:02:53;94810.98;;;9.72;98.35
5777;BME280;2914;42.668;23.346;2023-05-10T11:05:39;94813.02;;;9.74;98.81
5777;BME280;2914;42.668;23.346;2023-05-10T11:08:13;94806.03;;;9.79;99.29
5777;BME280;2914;42.668;23.346;2023-05-10T11:11:03;94815.61;;;9.80;98.58
5777;BME280;2914;42.668;23.346;2023-05-10T11:13:37;94815.61;;;9.80;98.58
5777;BME280;2914;42.668;23.346;2023-05-10T11:16:14;94807.92;;;9.82;98.23
5777;BME280;2914;42.668;23.346;2023-05-10T11:18:54;94798.84;;;9.81;98.52
5777;BME280;2914;42.668;23.346;2023-05-10T11:21:25;94812.43;;;9.86;97.67
5777;BME280;2914;42.668;23.346;2023-05-10T11:23:55;94796.49;;;9.72;99.11
5777;BME280;2914;42.668;23.346;2023-05-10T11:26:26;94815.83;;;9.82;99.38
5777;BME280;2914;42.668;23.346;2023-05-10T11:28:56;94815.83;;;9.82;99.38
5777;BME280;2914;42.668;23.346;2023-05-10T11:31:28;94818.06;;;9.72;99.58
5777;BME280;2914;42.668;23.346;2023-05-10T11:33:58;94823.46;;;9.70;99.50
5777;BME280;2914;42.668;23.346;2023-05-10T11:36:32;94818.06;;;9.87;99.60
5777;BME280;2914;42.668;23.346;2023-05-10T11:39:01;94818.06;;;9.87;99.60
5777;BME280;2914;42.668;23.346;2023-05-10T11:44:07;94814.64;;;9.96;98.15
5777;BME280;2914;42.668;23.346;2023-05-10T11:49:15;94820.52;;;9.94;100.00
5777;BME280;2914;42.668;23.346;2023-05-10T11:51:44;94808.80;;;9.77;100.00
5777;BME280;2914;42.668;23.346;2023-05-10T11:54:14;94814.69;;;9.91;100.00
5777;BME280;2914;42.668;23.346;2023-05-10T11:56:43;94814.69;;;9.91;100.00
5777;BME280;2914;42.668;23.346;2023-05-10T11:59:14;94789.03;;;9.93;100.00
5777;BME280;2914;42.668;23.346;2023-05-10T12:01:43;94804.06;;;9.87;100.00
5777;BME280;2914;42.668;23.346;2023-05-10T12:04:13;94802.16;;;9.83;100.00
5777;BME280;2914;42.668;23.346;2023-05-10T12:06:42;94781.20;;;9.97;99.99
5777;BME280;2914;42.668;23.346;2023-05-10T12:09:12;94781.20;;;9.97;99.99
5777;BME280;2914;42.668;23.346;2023-05-10T12:11:42;94800.89;;;9.93;100.00
5777;BME280;2914;42.668;23.346;2023-05-10T12:14:11;94795.33;;;10.01;100.00
5777;BME280;2914;42.668;23.346;2023-05-10T12:19:20;94777.84;;;10.00;99.57
5777;BME280;2914;42.668;23.346;2023-05-10T12:21:49;94777.84;;;10.00;99.57
5777;BME280;2914;42.668;23.346;2023-05-10T12:24:19;94788.02;;;9.99;99.47
5777;BME280;2914;42.668;23.346;2023-05-10T12:26:49;94792.33;;;10.00;99.09
5777;BME280;2914;42.668;23.346;2023-05-10T12:29:20;94766.25;;;9.97;98.80
5777;BME280;2914;42.668;23.346;2023-05-10T12:31:54;94780.11;;;9.99;99.26
5777;BME280;2914;42.668;23.346;2023-05-10T12:34:32;94767.73;;;10.06;99.24
5777;BME280;2914;42.668;23.346;2023-05-10T12:37:02;94767.73;;;10.06;99.24
5777;BME280;2914;42.668;23.346;2023-05-10T12:39:42;94775.91;;;10.28;98.16
5777;BME280;2914;42.668;23.346;2023-05-10T12:42:12;94771.19;;;10.31;96.90
5777;BME280;2914;42.668;23.346;2023-05-10T12:44:42;94773.28;;;10.28;96.10
5777;BME280;2914;42.668;23.346;2023-05-10T12:49:49;94774.78;;;10.36;95.28
5777;BME280;2914;42.668;23.346;2023-05-10T12:52:18;94781.19;;;10.28;96.83
5777;BME280;2914;42.668;23.346;2023-05-10T12:57:31;94762.59;;;10.29;96.18
5777;BME280;2914;42.668;23.346;2023-05-10T13:00:01;94751.97;;;10.25;96.17
5777;BME280;2914;42.668;23.346;2023-05-10T13:02:32;94742.40;;;10.34;97.20
5777;BME280;2914;42.668;23.346;2023-05-10T13:05:01;94742.40;;;10.34;97.20
5777;BME280;2914;42.668;23.346;2023-05-10T13:07:30;94753.69;;;10.36;96.89
5777;BME280;2914;42.668;23.346;2023-05-10T13:10:02;94755.31;;;10.52;96.77
5777;BME280;2914;42.668;23.346;2023-05-10T13:15:14;94754.14;;;10.51;97.04
5777;BME280;2914;42.668;23.346;2023-05-10T13:17:44;94754.14;;;10.51;97.04
5777;BME280;2914;42.668;23.346;2023-05-10T13:20:13;94750.28;;;10.40;97.95
5777;BME280;2914;42.668;23.346;2023-05-10T13:22:43;94750.28;;;10.40;97.95
5777;BME280;2914;42.668;23.346;2023-05-10T13:25:13;94752.59;;;10.39;97.91
5777;BME280;2914;42.668;23.346;2023-05-10T13:27:42;94745.30;;;10.46;97.54
5777;BME280;2914;42.668;23.346;2023-05-10T13:30:11;94746.98;;;10.32;97.36
5777;BME280;2914;42.668;23.346;2023-05-10T13:32:41;94735.38;;;10.34;97.24
5777;BME280;2914;42.668;23.346;2023-05-10T13:35:11;94734.95;;;10.39;98.13
5777;BME280;2914;42.668;23.346;2023-05-10T13:37:40;94734.95;;;10.39;98.13
5777;BME280;2914;42.668;23.346;2023-05-10T13:40:10;94728.44;;;10.43;98.04
5777;BME280;2914;42.668;23.346;2023-05-10T13:42:39;94740.31;;;10.63;98.94
5777;BME280;2914;42.668;23.346;2023-05-10T13:45:10;94752.19;;;10.63;95.78
5777;BME280;2914;42.668;23.346;2023-05-10T13:47:40;94733.92;;;10.46;95.71
5777;BME280;2914;42.668;23.346;2023-05-10T13:50:10;94719.77;;;10.31;96.65
5777;BME280;2914;42.668;23.346;2023-05-10T13:52:39;94719.77;;;10.31;96.65
5777;BME280;2914;42.668;23.346;2023-05-10T13:57:46;94737.91;;;10.30;97.15
5777;BME280;2914;42.668;23.346;2023-05-10T14:03:00;94729.54;;;10.41;98.10
5777;BME280;2914;42.668;23.346;2023-05-10T14:08:07;94738.16;;;10.43;97.46
5777;BME280;2914;42.668;23.346;2023-05-10T14:13:21;94723.30;;;10.42;98.34
5777;BME280;2914;42.668;23.346;2023-05-10T14:15:50;94723.30;;;10.42;98.34
5777;BME280;2914;42.668;23.346;2023-05-10T14:18:19;94740.52;;;10.46;97.40
5777;BME280;2914;42.668;23.346;2023-05-10T14:20:48;94725.86;;;10.38;98.02
5777;BME280;2914;42.668;23.346;2023-05-10T14:23:17;94734.05;;;10.34;97.99
5777;BME280;2914;42.668;23.346;2023-05-10T14:25:49;94734.05;;;10.34;97.99
5777;BME280;2914;42.668;23.346;2023-05-10T14:28:19;94736.59;;;10.30;97.85
5777;BME280;2914;42.668;23.346;2023-05-10T14:30:50;94732.27;;;10.29;98.24
5777;BME280;2914;42.668;23.346;2023-05-10T14:33:19;94732.95;;;10.31;99.03
5777;BME280;2914;42.668;23.346;2023-05-10T14:35:49;94732.95;;;10.31;99.03
5777;BME280;2914;42.668;23.346;2023-05-10T14:38:21;94735.52;;;10.27;98.86
5777;BME280;2914;42.668;23.346;2023-05-10T14:40:50;94724.72;;;10.30;99.19
5777;BME280;2914;42.668;23.346;2023-05-10T14:43:30;94728.79;;;10.44;98.84
5777;BME280;2914;42.668;23.346;2023-05-10T14:45:59;94717.14;;;10.47;98.46
5777;BME280;2914;42.668;23.346;2023-05-10T14:48:28;94717.14;;;10.47;98.46